Time;durP1;ratioP1;P1;durP2;ratioP2;P2;SDS_P1;SDS_P2;PMS_P1;PMS_P2;Temp;Humidity;BMP_temperature;BMP_pressure;BME280_temperature;BME280_humidity;BME280_pressure;Samples;Min_cycle;Max_cycle;Signal;HPM_P1;HPM_P2
2022/01/08 00:01:36;;;;;;;;;;;;;;;5.44;69.02;95160.97;5116101;28;1063;-48
2022/01/08 00:04:02;;;;;;;;;;;;;;;5.30;69.34;95164.81;5115690;28;1115;-48
2022/01/08 00:06:29;;;;;;;;;;;;;;;5.37;69.64;95165.09;5115722;28;1356;-48
2022/01/08 00:08:55;;;;;;;;;;;;;;;5.41;69.83;95162.09;5114932;28;1918;-48
2022/01/08 00:11:25;;;;;;;;;;;;;;;5.49;69.40;95166.75;5116041;27;992;-48
2022/01/08 00:13:51;;;;;;;;;;;;;;;5.59;69.65;95167.63;5115702;28;1044;-48
2022/01/08 00:16:18;;;;;;;;;;;;;;;5.54;69.80;95164.56;5115852;28;1042;-48
2022/01/08 00:18:44;;;;;;;;;;;;;;;5.52;69.54;95163.84;5115614;27;973;-48
2022/01/08 00:21:10;;;;;;;;;;;;;;;5.41;71.08;95169.22;5115315;28;1068;-48
2022/01/08 00:23:36;;;;;;;;;;;;;;;5.39;70.03;95171.16;5115361;28;1057;-48
2022/01/08 00:26:04;;;;;;;;;;;;;;;5.31;70.10;95158.50;5115367;28;1116;-48
2022/01/08 00:28:30;;;;;;;;;;;;;;;5.39;69.95;95164.03;5115373;28;1905;-48
2022/01/08 00:30:56;;;;;;;;;;;;;;;5.44;69.32;95160.97;5115208;28;1029;-48
2022/01/08 00:33:23;;;;;;;;;;;;;;;5.41;70.09;95154.13;5115085;28;1063;-48
2022/01/08 00:35:49;;;;;;;;;;;;;;;5.39;69.76;95155.25;5115263;28;1044;-48
2022/01/08 00:38:15;;;;;;;;;;;;;;;5.45;69.54;95160.03;5115117;28;1137;-48
2022/01/08 00:40:41;;;;;;;;;;;;;;;5.43;70.13;95152.19;5115245;28;1017;-48
2022/01/08 00:43:07;;;;;;;;;;;;;;;5.43;70.07;95156.66;5115067;28;1040;-47
2022/01/08 00:45:33;;;;;;;;;;;;;;;5.36;70.31;95156.31;5115229;28;1040;-48
2022/01/08 00:47:59;;;;;;;;;;;;;;;5.33;70.22;95161.03;5114866;28;2020;-48
2022/01/08 00:50:26;;;;;;;;;;;;;;;5.35;70.43;95161.75;5115032;28;1060;-48
2022/01/08 00:52:52;;;;;;;;;;;;;;;5.33;70.26;95161.03;5114608;28;1093;-47
2022/01/08 00:55:18;;;;;;;;;;;;;;;5.35;70.63;95152.00;5115129;28;984;-48
2022/01/08 00:57:44;;;;;;;;;;;;;;;5.27;70.76;95147.34;5114994;28;1032;-48
2022/01/08 01:00:11;;;;;;;;;;;;;;;5.18;69.72;95148.13;5114513;28;1084;-48
2022/01/08 01:02:37;;;;;;;;;;;;;;;5.12;69.61;95145.13;5114838;28;1904;-48
2022/01/08 01:05:04;;;;;;;;;;;;;;;5.16;69.88;95142.09;5114478;28;1047;-48
2022/01/08 01:07:30;;;;;;;;;;;;;;;5.31;69.63;95139.94;5114665;28;1228;-48
2022/01/08 01:09:56;;;;;;;;;;;;;;;5.42;69.71;95136.41;5114337;28;1934;-48
2022/01/08 01:12:23;;;;;;;;;;;;;;;5.49;69.16;95129.63;5114561;28;1095;-48
2022/01/08 01:14:49;;;;;;;;;;;;;;;5.53;69.48;95132.84;5114500;28;1044;-48
2022/01/08 01:17:15;;;;;;;;;;;;;;;5.47;69.38;95121.78;5114569;28;1043;-48
2022/01/08 01:19:41;;;;;;;;;;;;;;;5.45;70.56;95122.91;5113479;28;1007;-48
2022/01/08 01:22:07;;;;;;;;;;;;;;;5.38;70.98;95129.69;5114486;28;1012;-48
2022/01/08 01:24:35;;;;;;;;;;;;;;;5.43;69.79;95114.25;5114411;28;977;-48
2022/01/08 01:48:22;;;;;;;;;;;;;;;5.31;71.38;95089.59;5113945;28;1992;-48
2022/01/08 01:50:48;;;;;;;;;;;;;;;5.34;70.89;95084.03;5113840;28;1043;-48
2022/01/08 01:53:15;;;;;;;;;;;;;;;5.24;70.18;95078.69;5113846;28;968;-48
2022/01/08 01:55:42;;;;;;;;;;;;;;;5.31;70.18;95078.16;5113936;28;1000;-48
2022/01/08 01:58:09;;;;;;;;;;;;;;;5.43;70.54;95067.34;5113965;28;953;-48
2022/01/08 02:00:36;;;;;;;;;;;;;;;5.50;70.90;95069.47;5113749;28;1100;-48
2022/01/08 02:03:02;;;;;;;;;;;;;;;5.54;71.25;95068.22;5113869;28;1078;-48
2022/01/08 02:05:28;;;;;;;;;;;;;;;5.50;71.14;95067.63;5113538;28;1228;-48
2022/01/08 02:07:55;;;;;;;;;;;;;;;5.39;71.77;95065.09;5113457;28;1245;-48
2022/01/08 02:10:22;;;;;;;;;;;;;;;5.30;71.59;95072.00;5112537;28;1901;-48
2022/01/08 02:12:48;;;;;;;;;;;;;;;5.27;71.96;95066.97;5113922;28;984;-48
2022/01/08 02:15:14;;;;;;;;;;;;;;;5.16;72.72;95067.91;5113435;28;1068;-48
2022/01/08 02:17:41;;;;;;;;;;;;;;;5.04;72.63;95066.25;5113656;28;1147;-48
2022/01/08 02:20:07;;;;;;;;;;;;;;;5.03;72.89;95075.19;5113306;28;1049;-48
2022/01/08 02:22:33;;;;;;;;;;;;;;;5.13;72.99;95072.63;5113574;28;1019;-48
2022/01/08 02:24:59;;;;;;;;;;;;;;;5.21;73.19;95064.84;5113582;28;1008;-48
2022/01/08 02:27:26;;;;;;;;;;;;;;;5.15;73.67;95055.59;5113706;28;1039;-48
2022/01/08 02:29:52;;;;;;;;;;;;;;;5.11;74.54;95056.84;5112983;28;1905;-48
2022/01/08 02:32:19;;;;;;;;;;;;;;;5.00;74.74;95048.94;5117005;28;937;-48
2022/01/08 02:34:47;;;;;;;;;;;;;;;5.12;74.78;95045.25;5117482;28;977;-48
2022/01/08 02:37:15;;;;;;;;;;;;;;;5.12;75.07;95039.94;5117457;28;1924;-48
2022/01/08 02:39:42;;;;;;;;;;;;;;;5.14;75.19;95043.34;5117689;28;1044;-48
2022/01/08 02:42:13;;;;;;;;;;;;;;;5.15;74.94;95034.38;5117664;28;1051;-48
2022/01/08 02:44:42;;;;;;;;;;;;;;;5.19;74.67;95033.16;5117482;28;973;-48
2022/01/08 02:47:08;;;;;;;;;;;;;;;5.11;75.38;95035.63;5117356;28;1061;-48
2022/01/08 02:49:35;;;;;;;;;;;;;;;5.05;75.89;95036.16;5117117;28;1991;-48
2022/01/08 02:52:01;;;;;;;;;;;;;;;4.99;75.77;95026.91;5117473;28;1000;-48
2022/01/08 02:54:28;;;;;;;;;;;;;;;5.05;75.26;95025.56;5117300;28;1103;-47
2022/01/08 02:56:54;;;;;;;;;;;;;;;5.08;75.33;95019.97;5117198;28;981;-48
2022/01/08 02:59:20;;;;;;;;;;;;;;;5.11;75.13;95025.03;5117593;28;1062;-48
2022/01/08 03:01:46;;;;;;;;;;;;;;;5.15;74.83;95021.13;5117039;28;1100;-48
2022/01/08 03:04:13;;;;;;;;;;;;;;;5.09;75.46;95022.50;5117060;28;1048;-48
2022/01/08 03:06:39;;;;;;;;;;;;;;;5.10;75.36;95023.34;5116755;28;1161;-48
2022/01/08 03:09:05;;;;;;;;;;;;;;;5.07;75.39;95020.97;5116765;28;1914;-48
2022/01/08 03:11:32;;;;;;;;;;;;;;;5.03;75.65;95023.03;5117003;28;972;-48
2022/01/08 03:13:58;;;;;;;;;;;;;;;4.98;75.81;95017.28;5117071;28;1028;-48
2022/01/08 03:16:24;;;;;;;;;;;;;;;5.00;75.01;95017.16;5116786;28;1052;-48
2022/01/08 03:18:50;;;;;;;;;;;;;;;5.01;75.04;95014.38;5116798;28;1016;-48
2022/01/08 03:21:19;;;;;;;;;;;;;;;5.09;75.41;95026.97;5116499;28;1111;-48
2022/01/08 03:23:49;;;;;;;;;;;;;;;5.07;75.21;95024.44;5116964;27;996;-48
2022/01/08 03:26:17;;;;;;;;;;;;;;;5.14;74.99;95024.78;5116744;28;981;-48
2022/01/08 03:28:43;;;;;;;;;;;;;;;5.15;74.76;95021.13;5116713;28;1902;-48
2022/01/08 03:31:11;;;;;;;;;;;;;;;5.14;74.64;95019.47;5116270;28;949;-48
2022/01/08 03:33:37;;;;;;;;;;;;;;;5.18;74.50;95018.25;5116519;28;1101;-48
2022/01/08 03:36:03;;;;;;;;;;;;;;;5.07;75.22;95008.53;5116373;28;1019;-48
2022/01/08 03:38:30;;;;;;;;;;;;;;;4.99;75.73;95018.09;5116686;28;965;-48
2022/01/08 03:40:56;;;;;;;;;;;;;;;4.99;76.26;95018.97;5116363;28;1024;-48
2022/01/08 03:43:22;;;;;;;;;;;;;;;4.97;76.52;95015.63;5115653;28;1071;-47
2022/01/08 03:45:48;;;;;;;;;;;;;;;4.93;77.15;95015.97;5116231;28;1024;-48
2022/01/08 03:48:26;;;;;;;;;;;;;;;4.98;76.66;95019.09;5116099;28;2071;-47
2022/01/08 03:50:52;;;;;;;;;;;;;;;4.99;76.75;95015.47;5116134;28;1055;-48
2022/01/08 03:53:18;;;;;;;;;;;;;;;4.97;76.98;95009.44;5116216;28;1040;-48
2022/01/08 03:55:44;;;;;;;;;;;;;;;4.93;77.32;95006.22;5116106;28;1075;-48
2022/01/08 03:58:10;;;;;;;;;;;;;;;4.87;77.37;95010.22;5116116;28;957;-48
2022/01/08 04:00:37;;;;;;;;;;;;;;;4.93;76.69;95010.69;5115835;28;979;-48
2022/01/08 04:03:03;;;;;;;;;;;;;;;4.92;77.02;95009.84;5115824;28;1016;-48
2022/01/08 04:05:29;;;;;;;;;;;;;;;4.89;76.87;95002.16;5116069;28;1220;-47
2022/01/08 04:07:55;;;;;;;;;;;;;;;4.84;76.89;95010.50;5115647;28;1075;-48
2022/01/08 04:10:21;;;;;;;;;;;;;;;4.86;77.22;95011.22;5115947;28;1989;-48
2022/01/08 04:12:53;;;;;;;;;;;;;;;4.90;77.06;95019.75;5115618;28;1116;-48
2022/01/08 04:17:48;;;;;;;;;;;;;;;4.84;77.78;95010.50;5115999;28;997;-48
2022/01/08 04:20:15;;;;;;;;;;;;;;;4.86;77.70;95010.38;5115508;27;1984;-48
2022/01/08 04:22:41;;;;;;;;;;;;;;;4.83;77.38;95008.81;5115606;28;1027;-48
2022/01/08 04:25:07;;;;;;;;;;;;;;;4.86;77.45;95011.22;5115653;28;996;-48
2022/01/08 04:27:34;;;;;;;;;;;;;;;4.92;77.29;95014.31;5115428;28;1059;-48
2022/01/08 04:30:00;;;;;;;;;;;;;;;4.97;76.46;95015.63;5115052;28;1906;-48
2022/01/08 04:32:26;;;;;;;;;;;;;;;4.96;76.67;95008.63;5115464;28;1048;-48
2022/01/08 04:34:52;;;;;;;;;;;;;;;4.91;76.61;95007.31;5115282;28;1122;-47
2022/01/08 04:37:18;;;;;;;;;;;;;;;4.88;76.27;95011.09;5115305;28;1056;-48
2022/01/08 04:39:44;;;;;;;;;;;;;;;4.73;76.91;95015.88;5115423;28;1019;-48
2022/01/08 04:42:10;;;;;;;;;;;;;;;4.64;77.64;95016.63;5115067;28;1029;-48
2022/01/08 04:44:36;;;;;;;;;;;;;;;4.62;77.46;95018.56;5115147;28;1043;-48
2022/01/08 04:47:03;;;;;;;;;;;;;;;4.72;77.02;95014.16;5115072;28;1044;-48
2022/01/08 04:49:29;;;;;;;;;;;;;;;4.87;77.07;95014.69;5114962;28;1998;-47
2022/01/08 04:51:56;;;;;;;;;;;;;;;4.89;77.43;95016.25;5115158;28;1022;-47
2022/01/08 04:54:22;;;;;;;;;;;;;;;4.92;77.56;95015.16;5115395;28;1036;-48
2022/01/08 04:56:48;;;;;;;;;;;;;;;5.02;76.51;95015.22;5114856;28;965;-47
2022/01/08 04:59:14;;;;;;;;;;;;;;;5.03;76.62;95019.56;5114492;28;1069;-47
2022/01/08 05:01:40;;;;;;;;;;;;;;;4.91;76.87;95018.75;5115135;28;1020;-47
2022/01/08 05:04:06;;;;;;;;;;;;;;;4.99;76.18;95012.81;5114722;28;1067;-48
2022/01/08 05:06:33;;;;;;;;;;;;;;;4.96;76.34;95015.75;5114901;28;1177;-48
2022/01/08 05:08:59;;;;;;;;;;;;;;;4.85;76.58;95012.16;5114303;28;1918;-48
2022/01/08 05:11:27;;;;;;;;;;;;;;;4.82;76.98;95012.44;5114773;28;1020;-48
2022/01/08 05:13:54;;;;;;;;;;;;;;;4.77;77.16;95011.97;5114344;28;1055;-47
2022/01/08 05:16:21;;;;;;;;;;;;;;;4.72;77.33;95005.41;5114871;28;1031;-48
2022/01/08 05:18:49;;;;;;;;;;;;;;;4.68;77.49;95013.59;5114443;28;1052;-48
2022/01/08 05:23:44;;;;;;;;;;;;;;;4.84;77.02;95010.50;5114346;28;1077;-48
2022/01/08 05:26:10;;;;;;;;;;;;;;;4.86;76.95;95011.22;5114347;28;1049;-48
2022/01/08 05:28:36;;;;;;;;;;;;;;;4.89;76.87;95010.97;5114015;28;1910;-48
2022/01/08 05:31:02;;;;;;;;;;;;;;;4.94;76.75;95009.72;5114249;28;971;-48
2022/01/08 05:33:28;;;;;;;;;;;;;;;4.96;76.53;95011.28;5114005;28;1036;-47
2022/01/08 05:35:54;;;;;;;;;;;;;;;4.95;76.55;95006.09;5114347;28;1031;-47
2022/01/08 05:38:20;;;;;;;;;;;;;;;4.86;76.82;95005.09;5114084;28;1056;-48
2022/01/08 05:40:48;;;;;;;;;;;;;;;4.83;77.03;95000.88;5114144;28;1975;-48
2022/01/08 05:43:14;;;;;;;;;;;;;;;4.93;76.75;95005.38;5113852;28;976;-47
2022/01/08 05:45:40;;;;;;;;;;;;;;;4.90;76.44;94995.91;5114028;28;1091;-48
2022/01/08 05:48:07;;;;;;;;;;;;;;;4.96;75.96;95002.50;5113704;28;1037;-48
2022/01/08 05:50:33;;;;;;;;;;;;;;;4.84;76.00;95005.22;5113983;28;1025;-48
2022/01/08 05:52:59;;;;;;;;;;;;;;;4.80;76.30;95005.56;5113767;28;960;-48
2022/01/08 05:55:25;;;;;;;;;;;;;;;4.85;76.32;95006.03;5113980;28;1032;-48
2022/01/08 05:57:51;;;;;;;;;;;;;;;4.91;76.17;95004.69;5113636;28;1088;-48
2022/01/08 06:00:17;;;;;;;;;;;;;;;4.90;76.23;95001.19;5113817;28;976;-48
2022/01/08 06:02:43;;;;;;;;;;;;;;;4.91;76.24;95005.50;5113598;28;1029;-48
2022/01/08 06:05:09;;;;;;;;;;;;;;;4.90;76.74;95011.78;5113629;28;1035;-48
2022/01/08 06:07:36;;;;;;;;;;;;;;;4.86;77.22;95000.63;5113420;28;1141;-48
2022/01/08 06:10:03;;;;;;;;;;;;;;;4.82;77.10;94999.19;5113403;28;1992;-48
2022/01/08 06:12:29;;;;;;;;;;;;;;;4.81;77.15;95000.16;5113599;28;1060;-48
2022/01/08 06:14:55;;;;;;;;;;;;;;;4.75;77.44;94991.91;5113765;28;1063;-48
2022/01/08 06:17:21;;;;;;;;;;;;;;;4.68;77.93;95000.34;5113750;28;1060;-48
2022/01/08 06:19:47;;;;;;;;;;;;;;;4.65;78.52;95007.72;5113664;28;969;-48
2022/01/08 06:22:14;;;;;;;;;;;;;;;4.63;78.52;95004.34;5113415;28;1093;-48
2022/01/08 06:24:40;;;;;;;;;;;;;;;4.67;78.55;95005.78;5113397;28;957;-48
2022/01/08 06:27:06;;;;;;;;;;;;;;;4.73;78.01;95005.28;5113306;28;1054;-48
2022/01/08 06:29:32;;;;;;;;;;;;;;;4.78;77.93;95004.88;5112947;28;1910;-48
2022/01/08 06:31:58;;;;;;;;;;;;;;;4.56;78.01;94992.59;5113576;28;1029;-48
2022/01/08 06:34:25;;;;;;;;;;;;;;;4.73;77.88;95001.78;5113276;28;1021;-48
2022/01/08 06:36:51;;;;;;;;;;;;;;;4.83;77.33;94998.22;5113614;28;1043;-48
2022/01/08 06:39:17;;;;;;;;;;;;;;;4.92;77.00;95001.06;5113415;28;1060;-48
2022/01/08 06:41:43;;;;;;;;;;;;;;;4.99;76.75;95002.22;5113421;28;1001;-48
2022/01/08 06:44:10;;;;;;;;;;;;;;;4.99;77.10;95004.84;5113186;28;1063;-48
2022/01/08 06:46:36;;;;;;;;;;;;;;;5.05;76.87;95010.50;5113505;28;1111;-47
2022/01/08 06:49:02;;;;;;;;;;;;;;;5.06;77.00;95006.03;5112965;28;1991;-48
2022/01/08 06:51:28;;;;;;;;;;;;;;;5.07;76.85;95005.06;5113529;28;1000;-48
2022/01/08 06:53:54;;;;;;;;;;;;;;;5.15;76.22;95007.88;5113126;28;972;-48
2022/01/08 06:56:21;;;;;;;;;;;;;;;5.23;75.96;95005.41;5113272;28;1041;-48
2022/01/08 06:58:47;;;;;;;;;;;;;;;5.18;77.06;95005.00;5113144;28;1021;-48
2022/01/08 07:01:14;;;;;;;;;;;;;;;5.05;77.08;94999.88;5112995;28;1080;-48
2022/01/08 07:03:40;;;;;;;;;;;;;;;5.02;77.39;95007.25;5113146;28;1025;-48
2022/01/08 07:06:06;;;;;;;;;;;;;;;5.11;77.39;94998.53;5113104;28;1169;-48
2022/01/08 07:08:32;;;;;;;;;;;;;;;5.33;77.22;94996.66;5112939;28;1941;-48
2022/01/08 07:10:58;;;;;;;;;;;;;;;5.27;76.42;95006.84;5112917;28;1052;-48
2022/01/08 07:13:25;;;;;;;;;;;;;;;5.21;76.53;95009.19;5113448;28;1040;-48
2022/01/08 07:15:51;;;;;;;;;;;;;;;5.22;76.88;95010.88;5113116;28;1064;-48
2022/01/08 07:18:17;;;;;;;;;;;;;;;5.38;76.66;95005.06;5114607;28;1044;-48
2022/01/08 07:20:43;;;;;;;;;;;;;;;5.50;76.60;94997.84;5116819;28;1028;-48
2022/01/08 07:23:09;;;;;;;;;;;;;;;5.53;75.09;95003.72;5116686;28;1116;-48
2022/01/08 07:25:35;;;;;;;;;;;;;;;5.48;75.30;95000.63;5116570;28;1887;-48
2022/01/08 07:28:02;;;;;;;;;;;;;;;5.61;75.32;94995.94;5116852;28;1042;-48
2022/01/08 07:30:28;;;;;;;;;;;;;;;5.77;74.61;94995.44;5116460;28;1989;-48
2022/01/08 07:32:54;;;;;;;;;;;;;;;5.89;75.18;94996.16;5116532;28;965;-48
2022/01/08 07:35:22;;;;;;;;;;;;;;;5.91;75.10;94996.88;5116450;28;1886;-48
2022/01/08 07:37:49;;;;;;;;;;;;;;;5.97;75.82;94998.16;5116601;28;1120;-48
2022/01/08 07:40:15;;;;;;;;;;;;;;;5.97;75.53;94995.50;5116194;28;1065;-48
2022/01/08 07:42:41;;;;;;;;;;;;;;;5.93;75.90;94994.09;5116715;27;965;-48
2022/01/08 07:45:08;;;;;;;;;;;;;;;5.98;75.73;94997.19;5116362;28;988;-48
2022/01/08 07:47:34;;;;;;;;;;;;;;;5.81;75.89;94990.72;5116442;28;999;-48
2022/01/08 07:50:01;;;;;;;;;;;;;;;5.88;75.96;94991.84;5116105;28;1910;-48
2022/01/08 07:52:27;;;;;;;;;;;;;;;6.00;75.57;94992.59;5116251;28;1088;-48
2022/01/08 07:54:53;;;;;;;;;;;;;;;5.94;76.12;94987.78;5115916;28;1058;-48
2022/01/08 07:57:19;;;;;;;;;;;;;;;6.02;75.43;94994.13;5116352;28;1016;-48
2022/01/08 07:59:45;;;;;;;;;;;;;;;5.97;76.04;94991.03;5115925;28;1046;-48
2022/01/08 08:02:12;;;;;;;;;;;;;;;5.84;75.52;94985.97;5116042;28;987;-48
2022/01/08 08:04:38;;;;;;;;;;;;;;;5.77;76.48;94984.84;5115912;28;1058;-48
2022/01/08 08:07:04;;;;;;;;;;;;;;;5.78;76.42;94988.31;5115603;28;1282;-50
2022/01/08 08:09:30;;;;;;;;;;;;;;;5.86;76.26;94981.38;5115781;28;1905;-47
2022/01/08 08:11:56;;;;;;;;;;;;;;;5.95;76.17;94987.69;5115916;28;1047;-47
2022/01/08 08:14:22;;;;;;;;;;;;;;;5.86;76.00;94980.50;5115727;28;1061;-47
2022/01/08 08:16:48;;;;;;;;;;;;;;;5.95;75.97;94987.69;5115552;28;1055;-48
2022/01/08 08:19:16;;;;;;;;;;;;;;;5.98;75.53;94982.13;5115719;28;1035;-48
2022/01/08 08:21:42;;;;;;;;;;;;;;;6.04;75.20;94983.38;5115583;27;981;-48
2022/01/08 08:24:09;;;;;;;;;;;;;;;6.17;75.18;94983.13;5114332;28;1044;-48
2022/01/08 08:26:35;;;;;;;;;;;;;;;6.19;75.09;94978.50;5115613;28;981;-48
2022/01/08 08:29:02;;;;;;;;;;;;;;;6.29;75.57;94979.34;5114979;28;1913;-48
2022/01/08 08:31:28;;;;;;;;;;;;;;;6.29;74.86;94984.66;5115226;28;1020;-48
2022/01/08 08:33:54;;;;;;;;;;;;;;;6.26;74.76;94979.66;5115537;28;1024;-48
2022/01/08 08:36:20;;;;;;;;;;;;;;;6.15;75.23;94977.13;5115266;28;1021;-48
2022/01/08 08:38:46;;;;;;;;;;;;;;;6.14;75.66;94973.59;5115369;28;972;-48
2022/01/08 08:41:12;;;;;;;;;;;;;;;6.22;74.98;94968.47;5115306;28;1050;-48
2022/01/08 08:43:38;;;;;;;;;;;;;;;6.39;74.04;94964.28;5115248;28;1092;-48
2022/01/08 08:46:04;;;;;;;;;;;;;;;6.53;73.18;94963.00;5113810;28;1059;-48
2022/01/08 08:48:30;;;;;;;;;;;;;;;6.72;73.21;94953.34;5115254;28;2394;-48
2022/01/08 08:50:56;;;;;;;;;;;;;;;6.66;72.51;94957.41;5114947;28;984;-48
2022/01/08 08:53:22;;;;;;;;;;;;;;;6.68;72.40;94954.56;5114975;28;1042;-48
2022/01/08 08:55:48;;;;;;;;;;;;;;;6.71;72.83;94956.97;5114839;28;1891;-48
2022/01/08 08:58:15;;;;;;;;;;;;;;;6.96;71.29;94951.06;5115100;28;1058;-48
2022/01/08 09:00:42;;;;;;;;;;;;;;;6.89;71.74;94949.09;5114669;28;973;-48
2022/01/08 09:03:08;;;;;;;;;;;;;;;6.54;72.60;94954.03;5113757;28;1073;-49
2022/01/08 09:05:35;;;;;;;;;;;;;;;6.44;73.63;94943.41;5114675;28;1216;-48
2022/01/08 09:08:01;;;;;;;;;;;;;;;6.47;73.51;94942.31;5114384;28;2008;-48
2022/01/08 09:10:27;;;;;;;;;;;;;;;6.48;73.94;94936.00;5114547;28;1901;-48
2022/01/08 09:12:54;;;;;;;;;;;;;;;6.43;74.63;94939.09;5114560;28;977;-48
2022/01/08 09:15:25;;;;;;;;;;;;;;;6.35;74.22;94940.78;5114792;28;1004;-48
2022/01/08 09:17:53;;;;;;;;;;;;;;;6.41;74.18;94934.88;5114254;28;1054;-48
2022/01/08 09:20:19;;;;;;;;;;;;;;;6.32;74.50;94933.94;5114673;28;1202;-48
2022/01/08 09:22:45;;;;;;;;;;;;;;;6.50;73.68;94938.53;5114210;28;1051;-48
2022/01/08 09:25:11;;;;;;;;;;;;;;;6.42;74.03;94924.13;5114392;28;1097;-47
2022/01/08 09:27:37;;;;;;;;;;;;;;;6.28;74.41;94927.22;5114432;28;1070;-48
2022/01/08 09:30:05;;;;;;;;;;;;;;;6.17;74.74;94919.41;5114132;28;1917;-48
2022/01/08 09:32:31;;;;;;;;;;;;;;;6.26;75.09;94907.97;5114251;28;1005;-48
2022/01/08 09:34:57;;;;;;;;;;;;;;;6.28;75.08;94913.97;5114249;28;965;-48
2022/01/08 09:37:23;;;;;;;;;;;;;;;6.31;75.08;94920.78;5114016;28;1035;-48
2022/01/08 09:39:50;;;;;;;;;;;;;;;6.30;75.54;94906.69;5114427;28;1072;-47
2022/01/08 09:42:17;;;;;;;;;;;;;;;6.50;74.72;94904.84;5113491;28;1053;-48
2022/01/08 09:44:44;;;;;;;;;;;;;;;6.56;74.93;94904.25;5114068;28;1026;-47
2022/01/08 09:47:11;;;;;;;;;;;;;;;6.50;74.40;94904.00;5113899;28;1007;-48
2022/01/08 09:49:38;;;;;;;;;;;;;;;6.48;74.67;94895.34;5114006;28;1995;-48
2022/01/08 09:52:04;;;;;;;;;;;;;;;6.49;73.81;94889.03;5113693;28;996;-48
2022/01/08 09:54:31;;;;;;;;;;;;;;;6.32;74.25;94894.09;5113949;28;1084;-48
2022/01/08 09:56:58;;;;;;;;;;;;;;;6.22;75.13;94880.84;5113560;28;1123;-47
2022/01/08 09:59:25;;;;;;;;;;;;;;;6.25;74.75;94885.03;5113822;28;1031;-48
2022/01/08 10:01:52;;;;;;;;;;;;;;;6.34;74.36;94880.69;5113751;28;992;-48
2022/01/08 10:07:40;;;;;;;;;;;;;;;6.17;74.76;94875.13;5113541;28;1408;-48
2022/01/08 10:10:13;;;;;;;;;;;;;;;6.09;75.24;94877.63;5113732;28;1914;-48
2022/01/08 10:12:48;;;;;;;;;;;;;;;6.10;74.94;94879.31;5113625;28;1357;-48
2022/01/08 10:18:01;;;;;;;;;;;;;;;6.19;75.09;94872.31;5113621;28;1020;-48
2022/01/08 10:20:27;;;;;;;;;;;;;;;6.22;74.91;94872.03;5113959;28;1139;-48
2022/01/08 10:23:11;;;;;;;;;;;;;;;6.28;74.99;94866.16;5113425;28;1001;-48
2022/01/08 10:25:40;;;;;;;;;;;;;;;6.36;74.23;94868.94;5113537;28;1199;-47
2022/01/08 10:28:06;;;;;;;;;;;;;;;6.34;74.54;94862.94;5113555;28;1035;-48
2022/01/08 10:30:32;;;;;;;;;;;;;;;6.27;74.58;94861.81;5113387;28;1980;-48
2022/01/08 10:33:00;;;;;;;;;;;;;;;6.32;74.34;94858.72;5113230;28;1146;-48
2022/01/08 10:35:49;;;;;;;;;;;;;;;6.35;74.11;94867.25;5113565;28;2010;-48
2022/01/08 10:38:15;;;;;;;;;;;;;;;6.40;73.26;94854.41;5105410;28;2007;-48
2022/01/08 10:40:42;;;;;;;;;;;;;;;6.35;73.46;94858.47;5113482;28;1049;-48
2022/01/08 10:43:21;;;;;;;;;;;;;;;6.22;73.96;94851.63;5113332;28;1040;-48
2022/01/08 10:45:48;;;;;;;;;;;;;;;6.35;73.85;94840.69;5113521;28;984;-48
2022/01/08 10:48:30;;;;;;;;;;;;;;;6.49;73.50;94836.78;5113194;28;989;-48
2022/01/08 10:51:29;;;;;;;;;;;;;;;6.48;73.22;94840.41;5113538;28;984;-48
2022/01/08 10:54:00;;;;;;;;;;;;;;;6.59;73.33;94832.25;5083071;28;1279;-49
2022/01/08 10:56:30;;;;;;;;;;;;;;;6.69;72.53;94831.41;5117450;28;1221;-49
2022/01/08 10:58:59;;;;;;;;;;;;;;;6.63;72.25;94836.28;5116765;28;1048;-49
2022/01/08 11:01:39;;;;;;;;;;;;;;;6.64;73.05;94823.88;5117450;28;1052;-48
2022/01/08 11:04:09;;;;;;;;;;;;;;;6.77;72.59;94824.38;5116969;28;1100;-48
2022/01/08 11:06:52;;;;;;;;;;;;;;;6.87;72.28;94820.81;5117234;28;1208;-49
2022/01/08 11:09:18;;;;;;;;;;;;;;;6.80;71.92;94815.28;5116847;28;1913;-49
2022/01/08 11:11:44;;;;;;;;;;;;;;;6.83;72.23;94818.47;5117248;28;993;-48
2022/01/08 11:14:22;;;;;;;;;;;;;;;6.83;71.13;94822.97;5116962;28;964;-48
2022/01/08 11:16:50;;;;;;;;;;;;;;;6.72;71.37;94816.00;5117127;28;996;-49
2022/01/08 11:19:16;;;;;;;;;;;;;;;6.77;71.38;94813.75;5116864;28;1028;-48
2022/01/08 11:21:43;;;;;;;;;;;;;;;6.77;71.41;94810.25;5116895;28;981;-49
2022/01/08 11:24:09;;;;;;;;;;;;;;;6.70;72.17;94802.03;5116472;28;1065;-49
2022/01/08 11:26:36;;;;;;;;;;;;;;;6.76;72.22;94796.13;5116973;28;998;-48
2022/01/08 11:29:03;;;;;;;;;;;;;;;6.95;71.27;94802.34;5116366;28;1987;-48
2022/01/08 11:31:32;;;;;;;;;;;;;;;6.85;71.92;94791.75;5115602;28;1048;-49
2022/01/08 11:34:06;;;;;;;;;;;;;;;6.82;71.51;94786.72;5115182;28;1065;-48
2022/01/08 11:36:33;;;;;;;;;;;;;;;6.78;72.06;94783.53;5116555;28;1080;-49
2022/01/08 11:39:00;;;;;;;;;;;;;;;6.79;71.23;94776.38;5116353;28;981;-48
2022/01/08 11:41:28;;;;;;;;;;;;;;;6.80;71.05;94775.41;5116538;28;1024;-48
2022/01/08 11:43:55;;;;;;;;;;;;;;;6.88;72.00;94778.16;5116344;28;1159;-49
2022/01/08 11:46:22;;;;;;;;;;;;;;;6.91;71.85;94777.06;5116413;28;1052;-48
2022/01/08 11:48:50;;;;;;;;;;;;;;;6.86;71.12;94774.00;5116553;28;1905;-49
2022/01/08 11:51:17;;;;;;;;;;;;;;;6.91;71.95;94777.06;5116298;27;960;-48
2022/01/08 11:53:53;;;;;;;;;;;;;;;6.88;72.30;94774.69;5115943;28;1062;-48
2022/01/08 11:56:21;;;;;;;;;;;;;;;6.76;72.06;94774.88;5116103;28;1096;-49
2022/01/08 11:59:00;;;;;;;;;;;;;;;6.67;72.17;94770.44;5116206;28;1997;-49
2022/01/08 12:01:27;;;;;;;;;;;;;;;6.70;72.43;94764.84;5116096;28;1049;-49
2022/01/08 12:03:55;;;;;;;;;;;;;;;6.76;73.09;94766.06;5115048;28;1043;-48
2022/01/08 12:06:33;;;;;;;;;;;;;;;6.77;73.97;94765.06;5116199;28;1349;-48
2022/01/08 12:09:15;;;;;;;;;;;;;;;6.73;73.81;94767.19;5115588;28;1914;-48
2022/01/08 12:11:41;;;;;;;;;;;;;;;6.84;73.92;94760.84;5116040;28;1047;-48
2022/01/08 12:14:14;;;;;;;;;;;;;;;6.82;73.94;94761.00;5115543;28;1137;-48
2022/01/08 12:16:44;;;;;;;;;;;;;;;6.86;74.32;94760.69;5116051;28;1043;-48
2022/01/08 12:19:29;;;;;;;;;;;;;;;6.90;74.81;94754.94;5115726;28;983;-48
2022/01/08 12:21:55;;;;;;;;;;;;;;;6.91;75.40;94751.31;5115637;28;1025;-48
2022/01/08 12:24:27;;;;;;;;;;;;;;;6.99;74.40;94746.06;5115609;28;1024;-48
2022/01/08 12:26:54;;;;;;;;;;;;;;;7.17;73.41;94746.13;5115544;28;1047;-48
2022/01/08 12:29:32;;;;;;;;;;;;;;;7.16;73.83;94744.44;5115396;28;1971;-48
2022/01/08 12:32:16;;;;;;;;;;;;;;;7.12;74.68;94740.41;5115570;28;1055;-48
2022/01/08 12:34:47;;;;;;;;;;;;;;;7.03;75.78;94744.78;5115348;28;1007;-48
2022/01/08 12:37:13;;;;;;;;;;;;;;;6.99;75.57;94739.94;5115321;28;972;-49
2022/01/08 12:39:39;;;;;;;;;;;;;;;6.91;75.54;94739.84;5115554;28;1055;-49
2022/01/08 12:42:26;;;;;;;;;;;;;;;6.82;75.05;94738.91;5115431;28;985;-49
2022/01/08 12:45:10;;;;;;;;;;;;;;;6.68;76.11;94745.56;5104474;28;2034;-48
2022/01/08 12:47:40;;;;;;;;;;;;;;;6.57;76.37;94735.94;5115107;28;964;-49
2022/01/08 12:50:15;;;;;;;;;;;;;;;6.65;77.17;94735.22;5115077;28;1902;-49
2022/01/08 12:53:00;;;;;;;;;;;;;;;6.62;76.27;94735.50;5115066;28;1276;-48
2022/01/08 12:55:26;;;;;;;;;;;;;;;6.67;77.33;94733.25;5113765;28;953;-46
2022/01/08 12:57:53;;;;;;;;;;;;;;;6.67;76.32;94729.75;5114936;28;1025;-45
2022/01/08 13:00:19;;;;;;;;;;;;;;;6.76;75.09;94731.53;5114619;27;977;-46
2022/01/08 13:02:46;;;;;;;;;;;;;;;6.82;75.07;94725.63;5114954;28;1088;-47
2022/01/08 13:05:13;;;;;;;;;;;;;;;6.80;76.53;94732.91;5114606;28;1037;-46
2022/01/08 13:07:52;;;;;;;;;;;;;;;6.77;75.81;94734.03;5114717;28;1245;-47
2022/01/08 13:10:19;;;;;;;;;;;;;;;6.78;75.37;94726.91;5114603;28;1989;-47
2022/01/08 13:13:01;;;;;;;;;;;;;;;6.81;75.69;94723.94;5114631;28;1009;-47
2022/01/08 13:15:33;;;;;;;;;;;;;;;6.80;75.35;94728.41;5113457;28;1041;-46
2022/01/08 13:18:16;;;;;;;;;;;;;;;6.81;76.20;94722.13;5114700;28;1060;-46
2022/01/08 13:20:42;;;;;;;;;;;;;;;6.71;75.47;94721.31;5114400;28;1081;-46
2022/01/08 13:23:12;;;;;;;;;;;;;;;6.82;76.04;94709.66;5113205;28;1048;-46
2022/01/08 13:25:38;;;;;;;;;;;;;;;6.76;74.67;94702.31;5114585;28;1003;-47
2022/01/08 13:28:04;;;;;;;;;;;;;;;6.93;74.85;94704.16;5114578;28;1052;-47
2022/01/08 13:30:30;;;;;;;;;;;;;;;7.00;74.70;94707.03;5112662;28;1902;-47
2022/01/08 13:33:00;;;;;;;;;;;;;;;7.03;74.41;94696.09;5114324;28;1052;-47
2022/01/08 13:35:26;;;;;;;;;;;;;;;7.04;75.57;94697.78;5114118;28;1115;-47
2022/01/08 13:37:52;;;;;;;;;;;;;;;6.96;75.94;94695.88;5114111;27;1040;-46
2022/01/08 13:40:18;;;;;;;;;;;;;;;7.02;75.55;94705.09;5114234;28;1059;-47
2022/01/08 13:42:44;;;;;;;;;;;;;;;7.07;75.89;94694.81;5114072;28;1038;-47
2022/01/08 13:45:10;;;;;;;;;;;;;;;7.13;74.88;94694.22;5114008;28;1012;-47